sensor_id;sensor_type;location;lat;lon;timestamp;temperature;humidity
52305;DHT22;38248;52.722;6.734;2022-07-09T00:00:04;15.70;99.90
52305;DHT22;38248;52.722;6.734;2022-07-09T00:02:30;15.60;99.90
52305;DHT22;38248;52.722;6.734;2022-07-09T00:04:56;15.70;99.90
52305;DHT22;38248;52.722;6.734;2022-07-09T00:07:22;15.60;99.90
52305;DHT22;38248;52.722;6.734;2022-07-09T00:09:47;15.60;99.90
52305;DHT22;38248;52.722;6.734;2022-07-09T00:12:13;15.60;99.90
52305;DHT22;38248;52.722;6.734;2022-07-09T00:14:39;15.60;99.90
52305;DHT22;38248;52.722;6.734;2022-07-09T00:17:05;15.60;99.90
52305;DHT22;38248;52.722;6.734;2022-07-09T00:19:31;15.50;99.90
52305;DHT22;38248;52.722;6.734;2022-07-09T00:22:03;15.60;99.90
52305;DHT22;38248;52.722;6.734;2022-07-09T00:24:29;15.60;99.90
52305;DHT22;38248;52.722;6.734;2022-07-09T00:26:55;15.60;99.90
52305;DHT22;38248;52.722;6.734;2022-07-09T00:29:21;15.60;99.90
52305;DHT22;38248;52.722;6.734;2022-07-09T00:31:46;15.50;99.90
52305;DHT22;38248;52.722;6.734;2022-07-09T00:34:12;15.60;99.90
52305;DHT22;38248;52.722;6.734;2022-07-09T00:36:38;15.60;99.90
52305;DHT22;38248;52.722;6.734;2022-07-09T00:39:04;15.60;99.90
52305;DHT22;38248;52.722;6.734;2022-07-09T00:41:31;15.60;99.90
52305;DHT22;38248;52.722;6.734;2022-07-09T00:43:56;15.60;99.90
52305;DHT22;38248;52.722;6.734;2022-07-09T00:46:22;15.60;99.90
52305;DHT22;38248;52.722;6.734;2022-07-09T00:48:48;15.60;99.90
52305;DHT22;38248;52.722;6.734;2022-07-09T00:51:17;15.60;99.90
52305;DHT22;38248;52.722;6.734;2022-07-09T00:53:45;15.70;99.90
52305;DHT22;38248;52.722;6.734;2022-07-09T00:56:15;15.60;99.90
52305;DHT22;38248;52.722;6.734;2022-07-09T00:58:45;15.70;99.90
52305;DHT22;38248;52.722;6.734;2022-07-09T01:01:12;15.70;99.90
52305;DHT22;38248;52.722;6.734;2022-07-09T01:03:38;15.80;99.90
52305;DHT22;38248;52.722;6.734;2022-07-09T01:06:04;15.80;99.90
52305;DHT22;38248;52.722;6.734;2022-07-09T01:08:30;15.80;99.90
52305;DHT22;38248;52.722;6.734;2022-07-09T01:10:57;15.80;99.90
52305;DHT22;38248;52.722;6.734;2022-07-09T01:13:22;15.80;99.90
52305;DHT22;38248;52.722;6.734;2022-07-09T01:15:49;15.90;99.90
52305;DHT22;38248;52.722;6.734;2022-07-09T01:18:15;15.80;99.90
52305;DHT22;38248;52.722;6.734;2022-07-09T01:20:41;15.80;99.90
52305;DHT22;38248;52.722;6.734;2022-07-09T01:23:07;15.80;99.90
52305;DHT22;38248;52.722;6.734;2022-07-09T01:25:38;15.70;99.90
52305;DHT22;38248;52.722;6.734;2022-07-09T01:28:08;15.70;99.90
52305;DHT22;38248;52.722;6.734;2022-07-09T01:30:36;15.70;99.90
52305;DHT22;38248;52.722;6.734;2022-07-09T01:33:02;15.70;99.90
52305;DHT22;38248;52.722;6.734;2022-07-09T01:35:28;15.60;99.90
52305;DHT22;38248;52.722;6.734;2022-07-09T01:38:02;15.60;99.90
52305;DHT22;38248;52.722;6.734;2022-07-09T01:40:39;15.50;99.90
52305;DHT22;38248;52.722;6.734;2022-07-09T01:43:05;15.50;99.90
52305;DHT22;38248;52.722;6.734;2022-07-09T01:45:31;15.50;99.90
52305;DHT22;38248;52.722;6.734;2022-07-09T01:47:56;15.40;99.90
52305;DHT22;38248;52.722;6.734;2022-07-09T01:50:22;15.50;99.90
52305;DHT22;38248;52.722;6.734;2022-07-09T01:52:48;15.50;99.90
52305;DHT22;38248;52.722;6.734;2022-07-09T01:55:33;15.50;99.90
52305;DHT22;38248;52.722;6.734;2022-07-09T01:57:59;15.60;99.90
52305;DHT22;38248;52.722;6.734;2022-07-09T02:00:25;15.60;99.90
52305;DHT22;38248;52.722;6.734;2022-07-09T02:03:02;15.60;99.90
52305;DHT22;38248;52.722;6.734;2022-07-09T02:05:49;15.70;99.90
52305;DHT22;38248;52.722;6.734;2022-07-09T02:08:22;15.70;99.90
52305;DHT22;38248;52.722;6.734;2022-07-09T02:10:48;15.70;99.90
52305;DHT22;38248;52.722;6.734;2022-07-09T02:13:14;15.70;99.90
52305;DHT22;38248;52.722;6.734;2022-07-09T02:15:40;15.70;99.90
52305;DHT22;38248;52.722;6.734;2022-07-09T02:18:09;15.70;99.90
52305;DHT22;38248;52.722;6.734;2022-07-09T02:20:36;15.80;99.90
52305;DHT22;38248;52.722;6.734;2022-07-09T02:23:10;15.80;99.90
52305;DHT22;38248;52.722;6.734;2022-07-09T02:25:47;15.80;99.90
52305;DHT22;38248;52.722;6.734;2022-07-09T02:28:16;15.70;99.90
52305;DHT22;38248;52.722;6.734;2022-07-09T02:30:41;15.70;99.90
52305;DHT22;38248;52.722;6.734;2022-07-09T02:33:10;15.80;99.90
52305;DHT22;38248;52.722;6.734;2022-07-09T02:35:48;15.70;99.90
52305;DHT22;38248;52.722;6.734;2022-07-09T02:38:14;15.80;99.90
52305;DHT22;38248;52.722;6.734;2022-07-09T02:40:40;15.80;99.90
52305;DHT22;38248;52.722;6.734;2022-07-09T02:43:09;15.80;99.90
52305;DHT22;38248;52.722;6.734;2022-07-09T02:45:34;15.80;99.90
52305;DHT22;38248;52.722;6.734;2022-07-09T02:48:00;15.80;99.90
52305;DHT22;38248;52.722;6.734;2022-07-09T02:50:28;15.80;99.90
52305;DHT22;38248;52.722;6.734;2022-07-09T02:52:53;15.70;99.90
52305;DHT22;38248;52.722;6.734;2022-07-09T02:55:19;15.70;99.90
52305;DHT22;38248;52.722;6.734;2022-07-09T02:57:45;15.80;99.90
52305;DHT22;38248;52.722;6.734;2022-07-09T03:00:11;15.80;99.90
52305;DHT22;38248;52.722;6.734;2022-07-09T03:02:37;15.80;99.90
52305;DHT22;38248;52.722;6.734;2022-07-09T03:05:06;15.70;99.90
52305;DHT22;38248;52.722;6.734;2022-07-09T03:07:32;15.80;99.90
52305;DHT22;38248;52.722;6.734;2022-07-09T03:09:58;15.80;99.90
52305;DHT22;38248;52.722;6.734;2022-07-09T03:12:24;15.70;99.90
52305;DHT22;38248;52.722;6.734;2022-07-09T03:14:53;15.80;99.90
52305;DHT22;38248;52.722;6.734;2022-07-09T03:17:19;15.80;99.90
52305;DHT22;38248;52.722;6.734;2022-07-09T03:19:44;15.80;99.90
52305;DHT22;38248;52.722;6.734;2022-07-09T03:22:10;15.80;99.90
52305;DHT22;38248;52.722;6.734;2022-07-09T03:24:39;15.80;99.90
52305;DHT22;38248;52.722;6.734;2022-07-09T03:27:47;15.90;99.90
52305;DHT22;38248;52.722;6.734;2022-07-09T03:30:13;15.80;99.90
52305;DHT22;38248;52.722;6.734;2022-07-09T03:32:38;15.90;99.90
52305;DHT22;38248;52.722;6.734;2022-07-09T03:35:06;15.90;99.90
52305;DHT22;38248;52.722;6.734;2022-07-09T03:37:34;15.90;99.90
52305;DHT22;38248;52.722;6.734;2022-07-09T03:40:02;15.90;99.90
52305;DHT22;38248;52.722;6.734;2022-07-09T03:42:31;15.90;99.90
52305;DHT22;38248;52.722;6.734;2022-07-09T03:44:59;15.90;99.90
52305;DHT22;38248;52.722;6.734;2022-07-09T03:47:27;15.90;99.90
52305;DHT22;38248;52.722;6.734;2022-07-09T03:49:53;15.90;99.90
52305;DHT22;38248;52.722;6.734;2022-07-09T03:52:21;15.90;99.90
52305;DHT22;38248;52.722;6.734;2022-07-09T03:54:47;15.90;99.90
52305;DHT22;38248;52.722;6.734;2022-07-09T03:57:13;16.00;99.90
52305;DHT22;38248;52.722;6.734;2022-07-09T03:59:39;15.90;99.90
52305;DHT22;38248;52.722;6.734;2022-07-09T04:02:10;15.90;99.90
52305;DHT22;38248;52.722;6.734;2022-07-09T04:04:36;16.00;99.90
52305;DHT22;38248;52.722;6.734;2022-07-09T04:07:02;15.90;99.90
52305;DHT22;38248;52.722;6.734;2022-07-09T04:09:27;15.90;99.90
52305;DHT22;38248;52.722;6.734;2022-07-09T04:11:53;15.90;99.90
52305;DHT22;38248;52.722;6.734;2022-07-09T04:14:19;15.80;99.90
52305;DHT22;38248;52.722;6.734;2022-07-09T04:16:45;15.80;99.90
52305;DHT22;38248;52.722;6.734;2022-07-09T04:19:12;15.80;99.90
52305;DHT22;38248;52.722;6.734;2022-07-09T04:21:38;15.80;99.90
52305;DHT22;38248;52.722;6.734;2022-07-09T04:24:06;15.80;99.90
52305;DHT22;38248;52.722;6.734;2022-07-09T04:26:32;15.80;99.90
52305;DHT22;38248;52.722;6.734;2022-07-09T04:28:58;15.80;99.90
52305;DHT22;38248;52.722;6.734;2022-07-09T04:31:23;15.80;99.90
52305;DHT22;38248;52.722;6.734;2022-07-09T04:33:49;16.00;99.90
52305;DHT22;38248;52.722;6.734;2022-07-09T04:36:15;15.90;99.90
52305;DHT22;38248;52.722;6.734;2022-07-09T04:38:41;15.90;99.90
52305;DHT22;38248;52.722;6.734;2022-07-09T04:41:06;15.90;99.90
52305;DHT22;38248;52.722;6.734;2022-07-09T04:43:32;15.90;99.90
52305;DHT22;38248;52.722;6.734;2022-07-09T04:46:01;15.90;99.90
52305;DHT22;38248;52.722;6.734;2022-07-09T04:48:27;16.00;99.90
52305;DHT22;38248;52.722;6.734;2022-07-09T04:50:52;16.00;99.90
52305;DHT22;38248;52.722;6.734;2022-07-09T04:53:18;16.10;99.90
52305;DHT22;38248;52.722;6.734;2022-07-09T04:55:44;16.10;99.90
52305;DHT22;38248;52.722;6.734;2022-07-09T04:58:09;16.10;99.90
52305;DHT22;38248;52.722;6.734;2022-07-09T05:00:35;16.20;99.90
52305;DHT22;38248;52.722;6.734;2022-07-09T05:03:01;16.20;99.90
52305;DHT22;38248;52.722;6.734;2022-07-09T05:05:27;16.10;99.90
52305;DHT22;38248;52.722;6.734;2022-07-09T05:07:52;16.20;99.90
52305;DHT22;38248;52.722;6.734;2022-07-09T05:10:18;16.30;99.90
52305;DHT22;38248;52.722;6.734;2022-07-09T05:12:45;16.30;99.90
52305;DHT22;38248;52.722;6.734;2022-07-09T05:15:11;16.40;99.90
52305;DHT22;38248;52.722;6.734;2022-07-09T05:17:38;16.50;99.90
52305;DHT22;38248;52.722;6.734;2022-07-09T05:20:05;16.60;99.90
52305;DHT22;38248;52.722;6.734;2022-07-09T05:22:32;16.60;99.90
52305;DHT22;38248;52.722;6.734;2022-07-09T05:25:01;16.70;99.90
52305;DHT22;38248;52.722;6.734;2022-07-09T05:27:27;16.70;99.90
52305;DHT22;38248;52.722;6.734;2022-07-09T05:29:53;16.70;99.90
52305;DHT22;38248;52.722;6.734;2022-07-09T05:32:19;16.70;99.90
52305;DHT22;38248;52.722;6.734;2022-07-09T05:34:44;16.70;99.90
52305;DHT22;38248;52.722;6.734;2022-07-09T05:37:10;16.70;99.90
52305;DHT22;38248;52.722;6.734;2022-07-09T05:39:36;16.70;99.90
52305;DHT22;38248;52.722;6.734;2022-07-09T05:42:05;16.80;99.90
52305;DHT22;38248;52.722;6.734;2022-07-09T05:44:31;16.80;99.90
52305;DHT22;38248;52.722;6.734;2022-07-09T05:47:00;16.80;99.90
52305;DHT22;38248;52.722;6.734;2022-07-09T05:49:30;16.80;99.90
52305;DHT22;38248;52.722;6.734;2022-07-09T05:51:55;16.80;99.90
52305;DHT22;38248;52.722;6.734;2022-07-09T05:54:22;16.90;99.90
52305;DHT22;38248;52.722;6.734;2022-07-09T05:56:48;17.10;99.90
52305;DHT22;38248;52.722;6.734;2022-07-09T05:59:13;17.00;99.90
52305;DHT22;38248;52.722;6.734;2022-07-09T06:01:39;17.10;99.90
52305;DHT22;38248;52.722;6.734;2022-07-09T06:04:07;17.10;99.90
52305;DHT22;38248;52.722;6.734;2022-07-09T06:06:33;17.20;99.90
52305;DHT22;38248;52.722;6.734;2022-07-09T06:08:59;17.30;99.90
52305;DHT22;38248;52.722;6.734;2022-07-09T06:11:25;17.30;99.90
52305;DHT22;38248;52.722;6.734;2022-07-09T06:13:51;17.30;99.90
52305;DHT22;38248;52.722;6.734;2022-07-09T06:16:17;17.40;99.90
52305;DHT22;38248;52.722;6.734;2022-07-09T06:18:42;17.50;99.90
52305;DHT22;38248;52.722;6.734;2022-07-09T06:21:08;17.60;99.90
52305;DHT22;38248;52.722;6.734;2022-07-09T06:23:34;17.60;99.90
52305;DHT22;38248;52.722;6.734;2022-07-09T06:25:59;17.60;99.90
52305;DHT22;38248;52.722;6.734;2022-07-09T06:28:25;17.70;99.90
52305;DHT22;38248;52.722;6.734;2022-07-09T06:30:51;17.70;99.90
52305;DHT22;38248;52.722;6.734;2022-07-09T06:33:16;17.70;99.90
52305;DHT22;38248;52.722;6.734;2022-07-09T06:35:42;17.80;99.90
52305;DHT22;38248;52.722;6.734;2022-07-09T06:38:08;17.90;99.90
52305;DHT22;38248;52.722;6.734;2022-07-09T06:40:33;17.90;99.90
52305;DHT22;38248;52.722;6.734;2022-07-09T06:43:00;17.90;99.90
52305;DHT22;38248;52.722;6.734;2022-07-09T06:45:25;18.00;99.90
52305;DHT22;38248;52.722;6.734;2022-07-09T06:47:51;18.10;99.90
52305;DHT22;38248;52.722;6.734;2022-07-09T06:50:19;18.10;99.90
52305;DHT22;38248;52.722;6.734;2022-07-09T06:52:45;18.10;99.90
52305;DHT22;38248;52.722;6.734;2022-07-09T06:55:10;18.20;99.90
52305;DHT22;38248;52.722;6.734;2022-07-09T06:57:37;18.10;99.90
52305;DHT22;38248;52.722;6.734;2022-07-09T07:00:05;18.10;99.90
52305;DHT22;38248;52.722;6.734;2022-07-09T07:02:30;18.10;99.90
52305;DHT22;38248;52.722;6.734;2022-07-09T07:04:56;18.10;99.90
52305;DHT22;38248;52.722;6.734;2022-07-09T07:07:22;18.20;99.90
52305;DHT22;38248;52.722;6.734;2022-07-09T07:09:47;18.20;99.90
52305;DHT22;38248;52.722;6.734;2022-07-09T07:12:13;18.20;99.90
52305;DHT22;38248;52.722;6.734;2022-07-09T07:14:39;18.20;99.90
52305;DHT22;38248;52.722;6.734;2022-07-09T07:17:04;18.30;99.90
52305;DHT22;38248;52.722;6.734;2022-07-09T07:19:30;18.30;99.90
52305;DHT22;38248;52.722;6.734;2022-07-09T07:22:00;18.40;99.90
52305;DHT22;38248;52.722;6.734;2022-07-09T07:24:25;18.50;99.90
52305;DHT22;38248;52.722;6.734;2022-07-09T07:26:51;18.50;99.90
52305;DHT22;38248;52.722;6.734;2022-07-09T07:29:19;18.60;99.90
52305;DHT22;38248;52.722;6.734;2022-07-09T07:31:46;18.60;99.90
52305;DHT22;38248;52.722;6.734;2022-07-09T07:34:11;18.80;99.90
52305;DHT22;38248;52.722;6.734;2022-07-09T07:36:37;18.80;99.90
52305;DHT22;38248;52.722;6.734;2022-07-09T07:39:03;18.90;99.90
52305;DHT22;38248;52.722;6.734;2022-07-09T07:41:29;18.90;99.90
52305;DHT22;38248;52.722;6.734;2022-07-09T07:43:55;18.90;99.90
52305;DHT22;38248;52.722;6.734;2022-07-09T07:46:20;18.90;99.90
52305;DHT22;38248;52.722;6.734;2022-07-09T07:48:46;19.00;99.90
52305;DHT22;38248;52.722;6.734;2022-07-09T07:51:14;19.00;99.90
52305;DHT22;38248;52.722;6.734;2022-07-09T07:53:40;19.00;99.90
52305;DHT22;38248;52.722;6.734;2022-07-09T07:56:09;19.00;99.90
52305;DHT22;38248;52.722;6.734;2022-07-09T07:58:34;18.90;99.90
52305;DHT22;38248;52.722;6.734;2022-07-09T08:01:01;18.80;99.90
52305;DHT22;38248;52.722;6.734;2022-07-09T08:03:27;18.70;99.90
52305;DHT22;38248;52.722;6.734;2022-07-09T08:05:53;18.60;99.90
52305;DHT22;38248;52.722;6.734;2022-07-09T08:08:19;18.60;99.90
52305;DHT22;38248;52.722;6.734;2022-07-09T08:10:45;18.60;99.90
52305;DHT22;38248;52.722;6.734;2022-07-09T08:13:15;18.60;99.90
52305;DHT22;38248;52.722;6.734;2022-07-09T08:15:41;18.50;99.90
52305;DHT22;38248;52.722;6.734;2022-07-09T08:18:07;18.50;99.90
52305;DHT22;38248;52.722;6.734;2022-07-09T08:20:38;18.50;99.90
52305;DHT22;38248;52.722;6.734;2022-07-09T08:23:06;18.60;99.90
52305;DHT22;38248;52.722;6.734;2022-07-09T08:25:33;18.60;99.90
52305;DHT22;38248;52.722;6.734;2022-07-09T08:27:59;18.70;99.90
52305;DHT22;38248;52.722;6.734;2022-07-09T08:30:25;18.80;99.90
52305;DHT22;38248;52.722;6.734;2022-07-09T08:32:51;18.90;99.90
52305;DHT22;38248;52.722;6.734;2022-07-09T08:35:18;18.90;99.90
52305;DHT22;38248;52.722;6.734;2022-07-09T08:37:43;19.00;99.90
52305;DHT22;38248;52.722;6.734;2022-07-09T08:40:16;19.00;99.90
52305;DHT22;38248;52.722;6.734;2022-07-09T08:42:42;19.10;99.90
52305;DHT22;38248;52.722;6.734;2022-07-09T08:45:11;19.20;99.90
52305;DHT22;38248;52.722;6.734;2022-07-09T08:47:38;19.40;99.90
52305;DHT22;38248;52.722;6.734;2022-07-09T08:50:05;19.50;99.90
52305;DHT22;38248;52.722;6.734;2022-07-09T08:52:31;19.60;99.90
52305;DHT22;38248;52.722;6.734;2022-07-09T08:55:01;19.80;99.90
52305;DHT22;38248;52.722;6.734;2022-07-09T08:57:27;20.00;99.90
52305;DHT22;38248;52.722;6.734;2022-07-09T08:59:56;20.10;99.90
52305;DHT22;38248;52.722;6.734;2022-07-09T09:02:22;20.20;99.90
52305;DHT22;38248;52.722;6.734;2022-07-09T09:04:49;20.20;99.90
52305;DHT22;38248;52.722;6.734;2022-07-09T09:07:18;20.20;99.90
52305;DHT22;38248;52.722;6.734;2022-07-09T09:10:22;20.10;99.90
52305;DHT22;38248;52.722;6.734;2022-07-09T09:12:58;19.90;99.90
52305;DHT22;38248;52.722;6.734;2022-07-09T09:15:24;20.00;99.90
52305;DHT22;38248;52.722;6.734;2022-07-09T09:17:51;20.10;99.90
52305;DHT22;38248;52.722;6.734;2022-07-09T09:20:17;20.30;99.90
52305;DHT22;38248;52.722;6.734;2022-07-09T09:22:48;20.50;99.90
52305;DHT22;38248;52.722;6.734;2022-07-09T09:25:21;20.50;99.90
52305;DHT22;38248;52.722;6.734;2022-07-09T09:27:59;20.50;99.90
52305;DHT22;38248;52.722;6.734;2022-07-09T09:30:26;20.50;99.90
52305;DHT22;38248;52.722;6.734;2022-07-09T09:32:59;20.50;99.90
52305;DHT22;38248;52.722;6.734;2022-07-09T09:35:26;20.60;99.90
52305;DHT22;38248;52.722;6.734;2022-07-09T09:37:53;20.80;99.90
52305;DHT22;38248;52.722;6.734;2022-07-09T09:40:18;21.00;99.90
52305;DHT22;38248;52.722;6.734;2022-07-09T09:42:45;21.10;99.90
52305;DHT22;38248;52.722;6.734;2022-07-09T09:45:13;21.20;99.90
52305;DHT22;38248;52.722;6.734;2022-07-09T09:47:43;21.40;99.90
52305;DHT22;38248;52.722;6.734;2022-07-09T09:50:12;21.50;99.90
52305;DHT22;38248;52.722;6.734;2022-07-09T09:52:41;21.60;99.90
52305;DHT22;38248;52.722;6.734;2022-07-09T09:55:08;21.70;99.90
52305;DHT22;38248;52.722;6.734;2022-07-09T09:57:35;21.60;99.90
52305;DHT22;38248;52.722;6.734;2022-07-09T10:00:01;21.70;99.90
52305;DHT22;38248;52.722;6.734;2022-07-09T10:02:27;21.70;99.90
52305;DHT22;38248;52.722;6.734;2022-07-09T10:04:54;21.60;99.90
52305;DHT22;38248;52.722;6.734;2022-07-09T10:07:20;21.40;99.90
52305;DHT22;38248;52.722;6.734;2022-07-09T10:09:56;21.10;99.90
52305;DHT22;38248;52.722;6.734;2022-07-09T10:12:28;20.90;99.90
52305;DHT22;38248;52.722;6.734;2022-07-09T10:14:54;20.80;99.90
52305;DHT22;38248;52.722;6.734;2022-07-09T10:17:20;20.70;99.90
52305;DHT22;38248;52.722;6.734;2022-07-09T10:20:05;20.80;99.90
52305;DHT22;38248;52.722;6.734;2022-07-09T10:22:44;21.00;99.90
52305;DHT22;38248;52.722;6.734;2022-07-09T10:25:13;21.30;99.90
52305;DHT22;38248;52.722;6.734;2022-07-09T10:27:48;21.40;99.90
52305;DHT22;38248;52.722;6.734;2022-07-09T10:30:28;21.30;99.90
52305;DHT22;38248;52.722;6.734;2022-07-09T10:33:10;21.30;99.90
52305;DHT22;38248;52.722;6.734;2022-07-09T10:35:46;21.10;99.90
52305;DHT22;38248;52.722;6.734;2022-07-09T10:38:15;21.10;99.90
52305;DHT22;38248;52.722;6.734;2022-07-09T10:40:55;21.20;99.90
52305;DHT22;38248;52.722;6.734;2022-07-09T10:43:39;21.20;99.80
52305;DHT22;38248;52.722;6.734;2022-07-09T10:46:11;21.20;99.90
52305;DHT22;38248;52.722;6.734;2022-07-09T10:48:37;21.20;99.90
52305;DHT22;38248;52.722;6.734;2022-07-09T10:51:05;21.30;99.90
52305;DHT22;38248;52.722;6.734;2022-07-09T10:53:31;21.40;99.90
52305;DHT22;38248;52.722;6.734;2022-07-09T10:55:59;21.60;99.70
52305;DHT22;38248;52.722;6.734;2022-07-09T10:58:25;21.70;99.50
52305;DHT22;38248;52.722;6.734;2022-07-09T11:00:55;21.70;94.30
52305;DHT22;38248;52.722;6.734;2022-07-09T11:03:26;21.70;94.40
52305;DHT22;38248;52.722;6.734;2022-07-09T11:05:52;21.70;95.00
52305;DHT22;38248;52.722;6.734;2022-07-09T11:08:18;21.70;94.60
52305;DHT22;38248;52.722;6.734;2022-07-09T11:10:43;21.40;94.50
52305;DHT22;38248;52.722;6.734;2022-07-09T11:13:09;21.20;94.90
52305;DHT22;38248;52.722;6.734;2022-07-09T11:15:38;20.90;94.90
52305;DHT22;38248;52.722;6.734;2022-07-09T11:18:05;20.80;95.60
52305;DHT22;38248;52.722;6.734;2022-07-09T11:20:37;20.80;95.00
52305;DHT22;38248;52.722;6.734;2022-07-09T11:23:08;20.80;95.40
52305;DHT22;38248;52.722;6.734;2022-07-09T11:25:34;20.90;95.00
52305;DHT22;38248;52.722;6.734;2022-07-09T11:28:00;21.00;95.40
52305;DHT22;38248;52.722;6.734;2022-07-09T11:30:28;21.20;95.90
52305;DHT22;38248;52.722;6.734;2022-07-09T11:32:54;21.40;94.70
52305;DHT22;38248;52.722;6.734;2022-07-09T11:35:30;21.60;94.60
52305;DHT22;38248;52.722;6.734;2022-07-09T11:37:58;21.60;95.10
52305;DHT22;38248;52.722;6.734;2022-07-09T11:40:24;21.80;94.80
52305;DHT22;38248;52.722;6.734;2022-07-09T11:42:50;21.50;94.70
52305;DHT22;38248;52.722;6.734;2022-07-09T11:45:24;21.30;93.70
52305;DHT22;38248;52.722;6.734;2022-07-09T11:47:49;21.10;93.70
52305;DHT22;38248;52.722;6.734;2022-07-09T11:50:18;21.10;93.90
52305;DHT22;38248;52.722;6.734;2022-07-09T11:52:50;20.90;94.20
52305;DHT22;38248;52.722;6.734;2022-07-09T11:55:24;21.10;94.70
52305;DHT22;38248;52.722;6.734;2022-07-09T11:57:57;21.30;94.90
52305;DHT22;38248;52.722;6.734;2022-07-09T12:00:25;21.60;95.10
52305;DHT22;38248;52.722;6.734;2022-07-09T12:02:55;21.90;94.80
52305;DHT22;38248;52.722;6.734;2022-07-09T12:05:29;21.80;95.00
52305;DHT22;38248;52.722;6.734;2022-07-09T12:07:59;21.70;95.60
52305;DHT22;38248;52.722;6.734;2022-07-09T12:10:36;21.60;95.50
52305;DHT22;38248;52.722;6.734;2022-07-09T12:13:03;21.70;96.00
52305;DHT22;38248;52.722;6.734;2022-07-09T12:15:29;21.80;96.00
52305;DHT22;38248;52.722;6.734;2022-07-09T12:17:57;21.80;95.10
52305;DHT22;38248;52.722;6.734;2022-07-09T12:20:25;21.80;96.00
52305;DHT22;38248;52.722;6.734;2022-07-09T12:22:52;22.00;96.10
52305;DHT22;38248;52.722;6.734;2022-07-09T12:25:19;22.00;95.50
52305;DHT22;38248;52.722;6.734;2022-07-09T12:27:48;21.90;94.60
52305;DHT22;38248;52.722;6.734;2022-07-09T12:30:15;21.80;94.60
52305;DHT22;38248;52.722;6.734;2022-07-09T12:32:41;21.70;94.30
52305;DHT22;38248;52.722;6.734;2022-07-09T12:35:08;21.70;95.50
52305;DHT22;38248;52.722;6.734;2022-07-09T12:37:34;21.80;94.90
52305;DHT22;38248;52.722;6.734;2022-07-09T12:40:01;21.80;94.60
52305;DHT22;38248;52.722;6.734;2022-07-09T12:42:27;21.80;94.80
52305;DHT22;38248;52.722;6.734;2022-07-09T12:44:53;21.80;95.10
52305;DHT22;38248;52.722;6.734;2022-07-09T12:47:18;21.80;94.70
52305;DHT22;38248;52.722;6.734;2022-07-09T12:49:44;21.70;94.90
52305;DHT22;38248;52.722;6.734;2022-07-09T12:52:10;21.60;94.40
52305;DHT22;38248;52.722;6.734;2022-07-09T12:54:35;21.50;94.70
52305;DHT22;38248;52.722;6.734;2022-07-09T12:57:01;21.50;94.90
52305;DHT22;38248;52.722;6.734;2022-07-09T12:59:27;21.70;95.20
52305;DHT22;38248;52.722;6.734;2022-07-09T13:01:53;22.00;96.00
52305;DHT22;38248;52.722;6.734;2022-07-09T13:04:18;22.30;94.40
52305;DHT22;38248;52.722;6.734;2022-07-09T13:06:47;22.30;92.70
52305;DHT22;38248;52.722;6.734;2022-07-09T13:09:12;22.20;92.70
52305;DHT22;38248;52.722;6.734;2022-07-09T13:11:39;22.10;91.50
52305;DHT22;38248;52.722;6.734;2022-07-09T13:14:05;22.00;91.50
52305;DHT22;38248;52.722;6.734;2022-07-09T13:16:31;22.00;92.20
52305;DHT22;38248;52.722;6.734;2022-07-09T13:18:57;22.10;91.30
52305;DHT22;38248;52.722;6.734;2022-07-09T13:21:23;22.20;90.50
52305;DHT22;38248;52.722;6.734;2022-07-09T13:23:49;22.20;89.70
52305;DHT22;38248;52.722;6.734;2022-07-09T13:26:15;22.10;87.80
52305;DHT22;38248;52.722;6.734;2022-07-09T13:28:42;22.10;88.20
52305;DHT22;38248;52.722;6.734;2022-07-09T13:31:08;22.10;88.20
52305;DHT22;38248;52.722;6.734;2022-07-09T13:33:35;22.10;88.90
52305;DHT22;38248;52.722;6.734;2022-07-09T13:36:02;22.20;89.30
52305;DHT22;38248;52.722;6.734;2022-07-09T13:38:29;22.00;89.60
52305;DHT22;38248;52.722;6.734;2022-07-09T13:40:55;21.90;88.10
52305;DHT22;38248;52.722;6.734;2022-07-09T13:43:21;21.80;88.60
52305;DHT22;38248;52.722;6.734;2022-07-09T13:45:49;21.80;88.90
52305;DHT22;38248;52.722;6.734;2022-07-09T13:48:16;21.90;88.60
52305;DHT22;38248;52.722;6.734;2022-07-09T13:50:41;22.20;90.40
52305;DHT22;38248;52.722;6.734;2022-07-09T13:53:07;22.30;88.40
52305;DHT22;38248;52.722;6.734;2022-07-09T13:55:33;22.60;89.30
52305;DHT22;38248;52.722;6.734;2022-07-09T13:57:58;22.70;89.50
52305;DHT22;38248;52.722;6.734;2022-07-09T14:00:24;22.70;88.60
52305;DHT22;38248;52.722;6.734;2022-07-09T14:02:50;22.70;86.00
52305;DHT22;38248;52.722;6.734;2022-07-09T14:05:16;22.60;87.00
52305;DHT22;38248;52.722;6.734;2022-07-09T14:07:42;22.50;87.30
52305;DHT22;38248;52.722;6.734;2022-07-09T14:10:07;22.50;87.80
52305;DHT22;38248;52.722;6.734;2022-07-09T14:12:33;22.60;88.90
52305;DHT22;38248;52.722;6.734;2022-07-09T14:14:59;22.50;86.70
52305;DHT22;38248;52.722;6.734;2022-07-09T14:17:26;22.50;87.40
52305;DHT22;38248;52.722;6.734;2022-07-09T14:19:52;22.30;84.80
52305;DHT22;38248;52.722;6.734;2022-07-09T14:22:18;21.90;85.80
52305;DHT22;38248;52.722;6.734;2022-07-09T14:24:45;21.60;86.50
52305;DHT22;38248;52.722;6.734;2022-07-09T14:27:10;21.60;87.00
52305;DHT22;38248;52.722;6.734;2022-07-09T14:29:36;21.80;90.10
52305;DHT22;38248;52.722;6.734;2022-07-09T14:32:02;22.00;89.20
52305;DHT22;38248;52.722;6.734;2022-07-09T14:34:28;22.40;88.20
52305;DHT22;38248;52.722;6.734;2022-07-09T14:36:54;22.30;87.70
52305;DHT22;38248;52.722;6.734;2022-07-09T14:39:25;22.10;86.90
52305;DHT22;38248;52.722;6.734;2022-07-09T14:41:51;22.10;85.10
52305;DHT22;38248;52.722;6.734;2022-07-09T14:44:17;21.90;84.50
52305;DHT22;38248;52.722;6.734;2022-07-09T14:46:43;21.70;86.20
52305;DHT22;38248;52.722;6.734;2022-07-09T14:49:09;21.60;87.80
52305;DHT22;38248;52.722;6.734;2022-07-09T14:51:36;21.60;88.40
52305;DHT22;38248;52.722;6.734;2022-07-09T14:54:03;21.40;86.50
52305;DHT22;38248;52.722;6.734;2022-07-09T14:56:29;21.20;87.40
52305;DHT22;38248;52.722;6.734;2022-07-09T14:58:55;21.10;87.20
52305;DHT22;38248;52.722;6.734;2022-07-09T15:01:21;20.90;87.60
52305;DHT22;38248;52.722;6.734;2022-07-09T15:03:49;21.00;88.00
52305;DHT22;38248;52.722;6.734;2022-07-09T15:06:28;21.00;88.90
52305;DHT22;38248;52.722;6.734;2022-07-09T15:08:54;20.90;87.40
52305;DHT22;38248;52.722;6.734;2022-07-09T15:11:19;21.10;88.80
52305;DHT22;38248;52.722;6.734;2022-07-09T15:13:45;21.30;89.10
52305;DHT22;38248;52.722;6.734;2022-07-09T15:16:11;21.30;87.20
52305;DHT22;38248;52.722;6.734;2022-07-09T15:18:36;21.00;86.40
52305;DHT22;38248;52.722;6.734;2022-07-09T15:21:02;20.70;85.80
52305;DHT22;38248;52.722;6.734;2022-07-09T15:23:28;20.50;86.90
52305;DHT22;38248;52.722;6.734;2022-07-09T15:25:53;20.50;86.90
52305;DHT22;38248;52.722;6.734;2022-07-09T15:28:19;20.50;88.50
52305;DHT22;38248;52.722;6.734;2022-07-09T15:30:45;20.40;87.90